sensor_id;sensor_type;location;lat;lon;timestamp;pressure;altitude;pressure_sealevel;temperature;humidity
36190;BME280;22232;50.914;13.858;2023-04-25T00:01:25;96952.38;;;7.68;100.00
36190;BME280;22232;50.914;13.858;2023-04-25T00:03:53;96957.09;;;7.66;100.00
36190;BME280;22232;50.914;13.858;2023-04-25T00:06:22;96949.84;;;7.62;100.00
36190;BME280;22232;50.914;13.858;2023-04-25T00:08:53;96955.16;;;7.62;100.00
36190;BME280;22232;50.914;13.858;2023-04-25T00:11:23;96948.00;;;7.62;100.00
36190;BME280;22232;50.914;13.858;2023-04-25T00:13:51;96962.06;;;7.63;100.00
36190;BME280;22232;50.914;13.858;2023-04-25T00:16:18;96944.31;;;7.51;100.00
36190;BME280;22232;50.914;13.858;2023-04-25T00:18:46;96949.19;;;7.43;100.00
36190;BME280;22232;50.914;13.858;2023-04-25T00:21:18;96950.91;;;7.37;100.00
36190;BME280;22232;50.914;13.858;2023-04-25T00:23:47;96949.28;;;7.36;100.00
36190;BME280;22232;50.914;13.858;2023-04-25T00:26:15;96957.03;;;7.38;100.00
36190;BME280;22232;50.914;13.858;2023-04-25T00:28:42;96950.56;;;7.33;100.00
36190;BME280;22232;50.914;13.858;2023-04-25T00:31:10;96957.69;;;7.33;100.00
36190;BME280;22232;50.914;13.858;2023-04-25T00:33:37;96951.03;;;7.30;100.00
36190;BME280;22232;50.914;13.858;2023-04-25T00:36:05;96955.16;;;7.26;100.00
36190;BME280;22232;50.914;13.858;2023-04-25T00:38:33;96955.97;;;7.27;100.00
36190;BME280;22232;50.914;13.858;2023-04-25T00:41:00;96952.16;;;7.23;100.00
36190;BME280;22232;50.914;13.858;2023-04-25T00:43:29;96948.13;;;7.20;100.00
36190;BME280;22232;50.914;13.858;2023-04-25T00:45:59;96949.97;;;7.20;100.00
36190;BME280;22232;50.914;13.858;2023-04-25T00:48:27;96945.72;;;7.19;100.00
36190;BME280;22232;50.914;13.858;2023-04-25T00:50:58;96942.25;;;7.18;100.00
36190;BME280;22232;50.914;13.858;2023-04-25T00:53:27;96940.41;;;7.19;100.00
36190;BME280;22232;50.914;13.858;2023-04-25T00:55:55;96948.38;;;7.19;100.00
36190;BME280;22232;50.914;13.858;2023-04-25T00:58:23;96948.25;;;7.25;100.00
36190;BME280;22232;50.914;13.858;2023-04-25T01:00:51;96948.38;;;7.19;100.00
36190;BME280;22232;50.914;13.858;2023-04-25T01:03:19;96946.41;;;7.14;100.00
36190;BME280;22232;50.914;13.858;2023-04-25T01:05:48;96944.06;;;7.06;100.00
36190;BME280;22232;50.914;13.858;2023-04-25T01:08:15;96948.94;;;6.97;100.00
36190;BME280;22232;50.914;13.858;2023-04-25T01:10:43;96953.28;;;6.92;100.00
36190;BME280;22232;50.914;13.858;2023-04-25T01:13:10;96951.56;;;6.85;100.00
36190;BME280;22232;50.914;13.858;2023-04-25T01:15:38;96941.84;;;6.68;100.00
36190;BME280;22232;50.914;13.858;2023-04-25T01:18:06;96948.97;;;6.67;100.00
36190;BME280;22232;50.914;13.858;2023-04-25T01:20:34;96954.38;;;6.60;100.00
36190;BME280;22232;50.914;13.858;2023-04-25T01:23:01;96946.75;;;6.52;100.00
36190;BME280;22232;50.914;13.858;2023-04-25T01:25:31;96949.03;;;6.49;100.00
36190;BME280;22232;50.914;13.858;2023-04-25T01:27:58;96943.25;;;6.40;100.00
36190;BME280;22232;50.914;13.858;2023-04-25T01:30:27;96941.16;;;6.30;100.00
36190;BME280;22232;50.914;13.858;2023-04-25T01:32:56;96946.06;;;6.27;100.00
36190;BME280;22232;50.914;13.858;2023-04-25T01:35:24;96943.88;;;6.24;100.00
36190;BME280;22232;50.914;13.858;2023-04-25T01:37:55;96951.44;;;6.20;100.00
36190;BME280;22232;50.914;13.858;2023-04-25T01:40:24;96943.31;;;6.22;100.00
36190;BME280;22232;50.914;13.858;2023-04-25T01:42:51;96940.66;;;6.22;100.00
36190;BME280;22232;50.914;13.858;2023-04-25T01:45:20;96941.31;;;6.17;100.00
36190;BME280;22232;50.914;13.858;2023-04-25T01:47:48;96943.38;;;6.15;100.00
36190;BME280;22232;50.914;13.858;2023-04-25T01:50:18;96951.63;;;6.07;100.00
36190;BME280;22232;50.914;13.858;2023-04-25T01:52:46;96939.88;;;6.03;100.00
36190;BME280;22232;50.914;13.858;2023-04-25T01:55:14;96949.28;;;5.98;100.00
36190;BME280;22232;50.914;13.858;2023-04-25T01:58:02;96937.34;;;5.89;100.00
36190;BME280;22232;50.914;13.858;2023-04-25T02:01:02;96940.00;;;5.89;100.00
36190;BME280;22232;50.914;13.858;2023-04-25T02:03:38;96940.00;;;5.89;100.00
36190;BME280;22232;50.914;13.858;2023-04-25T02:06:11;96947.56;;;5.86;100.00
36190;BME280;22232;50.914;13.858;2023-04-25T02:08:42;96953.38;;;5.76;100.00
36190;BME280;22232;50.914;13.858;2023-04-25T02:11:12;96947.13;;;5.70;100.00
36190;BME280;22232;50.914;13.858;2023-04-25T02:13:46;96948.38;;;5.68;100.00
36190;BME280;22232;50.914;13.858;2023-04-25T02:16:42;96948.00;;;5.64;100.00
36190;BME280;22232;50.914;13.858;2023-04-25T02:19:11;96946.41;;;5.63;100.00
36190;BME280;22232;50.914;13.858;2023-04-25T02:21:39;96945.56;;;5.63;100.00
36190;BME280;22232;50.914;13.858;2023-04-25T02:24:08;96946.25;;;5.58;100.00
36190;BME280;22232;50.914;13.858;2023-04-25T02:26:35;96945.09;;;5.54;100.00
36190;BME280;22232;50.914;13.858;2023-04-25T02:29:07;96941.59;;;5.53;100.00
36190;BME280;22232;50.914;13.858;2023-04-25T02:31:34;96944.47;;;5.52;100.00
36190;BME280;22232;50.914;13.858;2023-04-25T02:34:02;96938.53;;;5.57;100.00
36190;BME280;22232;50.914;13.858;2023-04-25T02:36:30;96945.28;;;5.52;100.00
36190;BME280;22232;50.914;13.858;2023-04-25T02:39:01;96945.28;;;5.52;100.00
36190;BME280;22232;50.914;13.858;2023-04-25T02:41:30;96946.31;;;5.51;100.00
36190;BME280;22232;50.914;13.858;2023-04-25T02:43:57;96946.97;;;5.47;100.00
36190;BME280;22232;50.914;13.858;2023-04-25T02:46:25;96942.03;;;5.50;100.00
36190;BME280;22232;50.914;13.858;2023-04-25T02:49:06;96941.91;;;5.45;100.00
36190;BME280;22232;50.914;13.858;2023-04-25T02:51:35;96939.47;;;5.44;100.00
36190;BME280;22232;50.914;13.858;2023-04-25T02:54:02;96943.09;;;5.49;100.00
36190;BME280;22232;50.914;13.858;2023-04-25T02:56:33;96942.88;;;5.51;100.00
36190;BME280;22232;50.914;13.858;2023-04-25T02:59:02;96941.47;;;5.48;100.00
36190;BME280;22232;50.914;13.858;2023-04-25T03:01:31;96941.91;;;5.45;100.00
36190;BME280;22232;50.914;13.858;2023-04-25T03:03:58;96943.16;;;5.43;100.00
36190;BME280;22232;50.914;13.858;2023-04-25T03:06:26;96944.63;;;5.39;100.00
36190;BME280;22232;50.914;13.858;2023-04-25T03:08:54;96941.03;;;5.33;100.00
36190;BME280;22232;50.914;13.858;2023-04-25T03:11:21;96938.44;;;5.26;100.00
36190;BME280;22232;50.914;13.858;2023-04-25T03:13:49;96932.91;;;5.28;100.00
36190;BME280;22232;50.914;13.858;2023-04-25T03:16:17;96932.75;;;5.23;100.00
36190;BME280;22232;50.914;13.858;2023-04-25T03:18:45;96926.22;;;5.25;100.00
36190;BME280;22232;50.914;13.858;2023-04-25T03:21:12;96930.50;;;5.26;100.00
36190;BME280;22232;50.914;13.858;2023-04-25T03:23:40;96924.56;;;5.31;100.00
36190;BME280;22232;50.914;13.858;2023-04-25T03:26:07;96926.31;;;5.37;100.00
36190;BME280;22232;50.914;13.858;2023-04-25T03:28:35;96916.91;;;5.41;100.00
36190;BME280;22232;50.914;13.858;2023-04-25T03:31:03;96930.28;;;5.46;100.00
36190;BME280;22232;50.914;13.858;2023-04-25T03:33:30;96918.03;;;5.52;100.00
36190;BME280;22232;50.914;13.858;2023-04-25T03:35:58;96915.16;;;5.53;100.00
36190;BME280;22232;50.914;13.858;2023-04-25T03:38:27;96911.88;;;5.58;100.00
36190;BME280;22232;50.914;13.858;2023-04-25T03:40:54;96917.66;;;5.67;100.00
36190;BME280;22232;50.914;13.858;2023-04-25T03:43:36;96921.28;;;5.72;100.00
36190;BME280;22232;50.914;13.858;2023-04-25T03:46:09;96921.03;;;5.74;100.00
36190;BME280;22232;50.914;13.858;2023-04-25T03:48:38;96918.38;;;5.74;100.00
36190;BME280;22232;50.914;13.858;2023-04-25T03:51:06;96924.03;;;5.78;100.00
36190;BME280;22232;50.914;13.858;2023-04-25T03:53:37;96922.19;;;5.78;100.00
36190;BME280;22232;50.914;13.858;2023-04-25T03:56:28;96922.59;;;5.82;100.00
36190;BME280;22232;50.914;13.858;2023-04-25T03:59:02;96927.44;;;5.85;100.00
36190;BME280;22232;50.914;13.858;2023-04-25T04:01:30;96922.94;;;5.85;100.00
36190;BME280;22232;50.914;13.858;2023-04-25T04:03:58;96920.31;;;5.85;100.00
36190;BME280;22232;50.914;13.858;2023-04-25T04:06:26;96919.84;;;5.88;100.00
36190;BME280;22232;50.914;13.858;2023-04-25T04:09:02;96919.22;;;5.93;100.00
36190;BME280;22232;50.914;13.858;2023-04-25T04:11:34;96923.91;;;6.09;100.00
36190;BME280;22232;50.914;13.858;2023-04-25T04:14:07;96920.47;;;6.20;100.00
36190;BME280;22232;50.914;13.858;2023-04-25T04:16:37;96925.91;;;6.26;100.00
36190;BME280;22232;50.914;13.858;2023-04-25T04:19:05;96922.63;;;6.30;100.00
36190;BME280;22232;50.914;13.858;2023-04-25T04:21:33;96923.53;;;6.36;100.00
36190;BME280;22232;50.914;13.858;2023-04-25T04:24:02;96924.25;;;6.43;100.00
36190;BME280;22232;50.914;13.858;2023-04-25T04:26:39;96927.16;;;6.53;100.00
36190;BME280;22232;50.914;13.858;2023-04-25T04:29:27;96931.75;;;6.88;100.00
36190;BME280;22232;50.914;13.858;2023-04-25T04:32:02;96927.03;;;7.02;100.00
36190;BME280;22232;50.914;13.858;2023-04-25T04:34:32;96936.03;;;7.12;100.00
36190;BME280;22232;50.914;13.858;2023-04-25T04:37:01;96934.53;;;7.28;100.00
36190;BME280;22232;50.914;13.858;2023-04-25T04:39:29;96944.81;;;7.37;100.00
36190;BME280;22232;50.914;13.858;2023-04-25T04:42:05;96939.38;;;7.43;100.00
36190;BME280;22232;50.914;13.858;2023-04-25T04:44:44;96939.94;;;7.45;100.00
36190;BME280;22232;50.914;13.858;2023-04-25T04:47:42;96943.41;;;7.46;100.00
36190;BME280;22232;50.914;13.858;2023-04-25T04:50:15;96943.97;;;7.59;100.00
36190;BME280;22232;50.914;13.858;2023-04-25T04:53:03;96949.13;;;7.78;100.00
36190;BME280;22232;50.914;13.858;2023-04-25T04:55:40;96936.47;;;8.09;100.00
36190;BME280;22232;50.914;13.858;2023-04-25T04:58:28;96943.63;;;8.37;100.00
36190;BME280;22232;50.914;13.858;2023-04-25T05:01:26;96943.09;;;8.63;100.00
36190;BME280;22232;50.914;13.858;2023-04-25T05:04:18;96934.75;;;9.22;100.00
36190;BME280;22232;50.914;13.858;2023-04-25T05:06:58;96938.69;;;9.36;100.00
36190;BME280;22232;50.914;13.858;2023-04-25T05:09:55;96944.59;;;9.60;100.00
36190;BME280;22232;50.914;13.858;2023-04-25T05:12:41;96943.19;;;9.53;100.00
36190;BME280;22232;50.914;13.858;2023-04-25T05:15:32;96942.88;;;9.32;100.00
36190;BME280;22232;50.914;13.858;2023-04-25T05:18:29;96948.16;;;9.10;100.00
36190;BME280;22232;50.914;13.858;2023-04-25T05:21:05;96940.63;;;8.90;100.00
36190;BME280;22232;50.914;13.858;2023-04-25T05:23:45;96939.09;;;8.78;100.00
36190;BME280;22232;50.914;13.858;2023-04-25T05:26:32;96944.72;;;8.81;100.00
36190;BME280;22232;50.914;13.858;2023-04-25T05:29:20;96932.81;;;8.84;100.00
36190;BME280;22232;50.914;13.858;2023-04-25T05:32:17;96941.44;;;8.74;100.00
36190;BME280;22232;50.914;13.858;2023-04-25T05:34:47;96931.50;;;8.69;100.00
36190;BME280;22232;50.914;13.858;2023-04-25T05:37:23;96938.03;;;8.79;100.00
36190;BME280;22232;50.914;13.858;2023-04-25T05:40:09;96937.72;;;8.75;100.00
36190;BME280;22232;50.914;13.858;2023-04-25T05:43:06;96941.00;;;8.82;100.00
36190;BME280;22232;50.914;13.858;2023-04-25T05:46:03;96938.72;;;8.86;100.00
36190;BME280;22232;50.914;13.858;2023-04-25T05:48:50;96941.53;;;8.96;100.00
36190;BME280;22232;50.914;13.858;2023-04-25T05:51:36;96941.28;;;9.14;100.00
36190;BME280;22232;50.914;13.858;2023-04-25T05:54:06;96935.56;;;9.23;100.00
36190;BME280;22232;50.914;13.858;2023-04-25T05:56:34;96937.47;;;9.44;100.00
36190;BME280;22232;50.914;13.858;2023-04-25T05:59:02;96940.56;;;9.58;100.00
36190;BME280;22232;50.914;13.858;2023-04-25T06:01:30;96936.97;;;9.47;100.00
36190;BME280;22232;50.914;13.858;2023-04-25T06:03:58;96941.00;;;9.50;100.00
36190;BME280;22232;50.914;13.858;2023-04-25T06:06:26;96943.53;;;9.78;100.00
36190;BME280;22232;50.914;13.858;2023-04-25T06:08:54;96938.50;;;11.07;100.00
36190;BME280;22232;50.914;13.858;2023-04-25T06:11:23;96936.22;;;11.21;100.00
36190;BME280;22232;50.914;13.858;2023-04-25T06:13:50;96939.72;;;10.94;100.00
36190;BME280;22232;50.914;13.858;2023-04-25T06:16:19;96938.03;;;10.83;100.00
36190;BME280;22232;50.914;13.858;2023-04-25T06:18:46;96935.50;;;11.83;100.00
36190;BME280;22232;50.914;13.858;2023-04-25T06:21:15;96931.56;;;13.15;100.00
36190;BME280;22232;50.914;13.858;2023-04-25T06:23:42;96933.91;;;13.83;90.16
36190;BME280;22232;50.914;13.858;2023-04-25T06:26:12;96926.44;;;14.35;86.35
36190;BME280;22232;50.914;13.858;2023-04-25T06:28:42;96935.66;;;15.12;82.74
36190;BME280;22232;50.914;13.858;2023-04-25T06:31:10;96934.94;;;14.97;76.22
36190;BME280;22232;50.914;13.858;2023-04-25T06:33:40;96933.00;;;15.36;69.39
36190;BME280;22232;50.914;13.858;2023-04-25T06:36:07;96928.31;;;15.18;71.76
36190;BME280;22232;50.914;13.858;2023-04-25T06:38:36;96930.19;;;15.23;66.27
36190;BME280;22232;50.914;13.858;2023-04-25T06:41:04;96938.34;;;14.73;67.08
36190;BME280;22232;50.914;13.858;2023-04-25T06:43:35;96937.97;;;13.70;73.57
36190;BME280;22232;50.914;13.858;2023-04-25T06:46:32;96941.97;;;13.73;74.23
36190;BME280;22232;50.914;13.858;2023-04-25T06:48:59;96934.47;;;13.60;74.95
36190;BME280;22232;50.914;13.858;2023-04-25T06:51:27;96930.66;;;13.91;82.48
36190;BME280;22232;50.914;13.858;2023-04-25T06:53:57;96924.19;;;14.62;79.38
36190;BME280;22232;50.914;13.858;2023-04-25T06:56:36;96925.25;;;15.01;69.03
36190;BME280;22232;50.914;13.858;2023-04-25T06:59:14;96931.22;;;14.53;65.37
36190;BME280;22232;50.914;13.858;2023-04-25T07:01:44;96928.81;;;14.41;74.44
36190;BME280;22232;50.914;13.858;2023-04-25T07:04:17;96929.38;;;14.88;68.49
36190;BME280;22232;50.914;13.858;2023-04-25T07:06:50;96930.94;;;14.94;66.98
36190;BME280;22232;50.914;13.858;2023-04-25T07:09:23;96924.44;;;15.34;62.35
36190;BME280;22232;50.914;13.858;2023-04-25T07:11:51;96935.56;;;14.88;63.94
36190;BME280;22232;50.914;13.858;2023-04-25T07:14:19;96934.88;;;15.07;63.18
36190;BME280;22232;50.914;13.858;2023-04-25T07:16:46;96936.38;;;15.18;57.87
36190;BME280;22232;50.914;13.858;2023-04-25T07:19:14;96942.53;;;14.89;64.69
36190;BME280;22232;50.914;13.858;2023-04-25T07:21:41;96940.41;;;15.21;62.20
36190;BME280;22232;50.914;13.858;2023-04-25T07:24:10;96935.03;;;15.21;60.05
36190;BME280;22232;50.914;13.858;2023-04-25T07:26:42;96944.88;;;14.57;61.61
36190;BME280;22232;50.914;13.858;2023-04-25T07:29:19;96946.53;;;13.67;68.77
36190;BME280;22232;50.914;13.858;2023-04-25T07:31:47;96946.56;;;13.42;66.61
36190;BME280;22232;50.914;13.858;2023-04-25T07:34:15;96939.81;;;12.62;68.52
36190;BME280;22232;50.914;13.858;2023-04-25T07:36:44;96943.00;;;12.39;76.95
36190;BME280;22232;50.914;13.858;2023-04-25T07:39:12;96946.88;;;12.06;79.30
36190;BME280;22232;50.914;13.858;2023-04-25T07:41:41;96949.44;;;12.53;82.19
36190;BME280;22232;50.914;13.858;2023-04-25T07:44:14;96946.31;;;13.38;72.30
36190;BME280;22232;50.914;13.858;2023-04-25T07:46:42;96955.94;;;13.29;66.51
36190;BME280;22232;50.914;13.858;2023-04-25T07:49:10;96947.34;;;12.96;69.70
36190;BME280;22232;50.914;13.858;2023-04-25T07:51:39;96960.41;;;12.52;79.92
36190;BME280;22232;50.914;13.858;2023-04-25T07:54:13;96956.25;;;12.13;81.37
36190;BME280;22232;50.914;13.858;2023-04-25T07:56:46;96953.78;;;12.02;83.52
36190;BME280;22232;50.914;13.858;2023-04-25T07:59:23;96956.53;;;12.12;90.11
36190;BME280;22232;50.914;13.858;2023-04-25T08:01:50;96961.44;;;11.83;84.74
36190;BME280;22232;50.914;13.858;2023-04-25T08:04:19;96957.72;;;11.46;91.82
36190;BME280;22232;50.914;13.858;2023-04-25T08:06:52;96961.69;;;12.34;88.80
36190;BME280;22232;50.914;13.858;2023-04-25T08:09:24;96960.78;;;13.42;79.62
36190;BME280;22232;50.914;13.858;2023-04-25T08:11:53;96941.72;;;14.39;69.36
36190;BME280;22232;50.914;13.858;2023-04-25T08:14:26;96953.41;;;15.03;62.22
36190;BME280;22232;50.914;13.858;2023-04-25T08:16:53;96956.50;;;14.86;58.73
36190;BME280;22232;50.914;13.858;2023-04-25T08:19:21;96960.69;;;13.83;63.98
36190;BME280;22232;50.914;13.858;2023-04-25T08:21:48;96960.75;;;13.06;64.26
36190;BME280;22232;50.914;13.858;2023-04-25T08:24:23;96963.47;;;13.42;71.73
36190;BME280;22232;50.914;13.858;2023-04-25T08:26:51;96965.03;;;13.64;61.09
36190;BME280;22232;50.914;13.858;2023-04-25T08:29:21;96966.91;;;13.02;64.43
36190;BME280;22232;50.914;13.858;2023-04-25T08:31:50;96973.91;;;13.34;74.16
36190;BME280;22232;50.914;13.858;2023-04-25T08:34:20;96957.78;;;14.44;63.06
36190;BME280;22232;50.914;13.858;2023-04-25T08:36:49;96953.44;;;15.37;60.09
36190;BME280;22232;50.914;13.858;2023-04-25T08:39:38;96956.44;;;15.89;53.02
36190;BME280;22232;50.914;13.858;2023-04-25T08:42:27;96965.16;;;16.48;55.37
36190;BME280;22232;50.914;13.858;2023-04-25T08:44:57;96964.25;;;14.93;50.52
36190;BME280;22232;50.914;13.858;2023-04-25T08:47:33;96975.41;;;14.01;54.09
36190;BME280;22232;50.914;13.858;2023-04-25T08:50:03;96977.91;;;13.21;62.58
36190;BME280;22232;50.914;13.858;2023-04-25T08:52:37;96976.00;;;13.57;64.31
36190;BME280;22232;50.914;13.858;2023-04-25T08:55:09;96987.47;;;13.93;56.56
36190;BME280;22232;50.914;13.858;2023-04-25T08:57:38;96989.94;;;13.59;56.63
36190;BME280;22232;50.914;13.858;2023-04-25T09:00:09;96998.22;;;13.17;58.18
36190;BME280;22232;50.914;13.858;2023-04-25T09:02:42;96992.59;;;13.08;62.01
36190;BME280;22232;50.914;13.858;2023-04-25T09:05:13;96996.09;;;13.03;61.10
36190;BME280;22232;50.914;13.858;2023-04-25T09:07:41;97002.28;;;13.24;66.20
36190;BME280;22232;50.914;13.858;2023-04-25T09:10:09;96994.47;;;12.97;64.91
36190;BME280;22232;50.914;13.858;2023-04-25T09:12:38;97007.88;;;13.13;64.61
36190;BME280;22232;50.914;13.858;2023-04-25T09:15:10;97004.81;;;12.58;63.65
36190;BME280;22232;50.914;13.858;2023-04-25T09:18:01;97010.13;;;12.43;67.05
36190;BME280;22232;50.914;13.858;2023-04-25T09:20:41;97014.53;;;12.11;72.20
36190;BME280;22232;50.914;13.858;2023-04-25T09:23:14;97023.59;;;12.05;73.92
36190;BME280;22232;50.914;13.858;2023-04-25T09:25:42;97022.56;;;12.11;73.78
36190;BME280;22232;50.914;13.858;2023-04-25T09:28:11;97021.22;;;11.77;71.24
36190;BME280;22232;50.914;13.858;2023-04-25T09:30:38;97033.09;;;11.54;77.68
36190;BME280;22232;50.914;13.858;2023-04-25T09:33:31;97026.50;;;11.29;78.58
36190;BME280;22232;50.914;13.858;2023-04-25T09:36:05;97037.53;;;11.11;86.40
36190;BME280;22232;50.914;13.858;2023-04-25T09:38:59;97044.38;;;11.01;91.25
36190;BME280;22232;50.914;13.858;2023-04-25T09:41:29;97046.69;;;10.66;98.02
36190;BME280;22232;50.914;13.858;2023-04-25T09:44:00;97045.06;;;10.65;100.00
36190;BME280;22232;50.914;13.858;2023-04-25T09:46:35;97048.28;;;10.67;100.00
36190;BME280;22232;50.914;13.858;2023-04-25T09:49:14;97055.38;;;10.56;100.00
36190;BME280;22232;50.914;13.858;2023-04-25T09:51:58;97060.75;;;10.61;100.00
36190;BME280;22232;50.914;13.858;2023-04-25T09:54:31;97056.16;;;10.78;100.00
36190;BME280;22232;50.914;13.858;2023-04-25T09:57:13;97056.25;;;10.89;98.84
36190;BME280;22232;50.914;13.858;2023-04-25T09:59:47;97056.19;;;11.11;100.00
36190;BME280;22232;50.914;13.858;2023-04-25T10:02:19;97062.16;;;10.91;97.72
36190;BME280;22232;50.914;13.858;2023-04-25T10:04:52;97057.78;;;11.07;98.42
36190;BME280;22232;50.914;13.858;2023-04-25T10:07:30;97058.31;;;10.82;100.00
36190;BME280;22232;50.914;13.858;2023-04-25T10:10:01;97066.78;;;10.29;100.00
36190;BME280;22232;50.914;13.858;2023-04-25T10:12:32;97077.91;;;10.09;100.00
36190;BME280;22232;50.914;13.858;2023-04-25T10:15:02;97082.56;;;9.80;100.00
36190;BME280;22232;50.914;13.858;2023-04-25T10:17:31;97081.91;;;9.73;100.00
36190;BME280;22232;50.914;13.858;2023-04-25T10:20:01;97079.25;;;9.90;100.00
36190;BME280;22232;50.914;13.858;2023-04-25T10:22:35;97078.66;;;10.05;100.00
36190;BME280;22232;50.914;13.858;2023-04-25T10:25:04;97074.22;;;10.10;98.82
36190;BME280;22232;50.914;13.858;2023-04-25T10:27:34;97083.69;;;10.40;96.04
36190;BME280;22232;50.914;13.858;2023-04-25T10:30:07;97081.66;;;10.69;98.15
36190;BME280;22232;50.914;13.858;2023-04-25T10:32:38;97073.41;;;10.93;100.00
36190;BME280;22232;50.914;13.858;2023-04-25T10:40:24;97065.03;;;11.38;96.97
36190;BME280;22232;50.914;13.858;2023-04-25T10:42:52;97064.78;;;11.77;81.44
36190;BME280;22232;50.914;13.858;2023-04-25T10:45:22;97072.84;;;11.82;81.76
36190;BME280;22232;50.914;13.858;2023-04-25T10:47:49;97075.78;;;11.81;85.25
36190;BME280;22232;50.914;13.858;2023-04-25T10:50:17;97075.22;;;11.46;85.31
36190;BME280;22232;50.914;13.858;2023-04-25T10:52:44;97078.03;;;11.30;87.14
36190;BME280;22232;50.914;13.858;2023-04-25T10:55:12;97071.41;;;11.10;91.01
36190;BME280;22232;50.914;13.858;2023-04-25T10:57:42;97079.47;;;11.15;95.80
36190;BME280;22232;50.914;13.858;2023-04-25T11:00:18;97077.16;;;11.24;98.22
36190;BME280;22232;50.914;13.858;2023-04-25T11:02:53;97075.47;;;11.77;100.00
36190;BME280;22232;50.914;13.858;2023-04-25T11:05:36;97072.00;;;11.77;93.05
36190;BME280;22232;50.914;13.858;2023-04-25T11:08:42;97069.78;;;12.01;94.87
36190;BME280;22232;50.914;13.858;2023-04-25T11:11:18;97068.75;;;12.07;90.69
36190;BME280;22232;50.914;13.858;2023-04-25T11:13:49;97078.28;;;11.92;89.09
36190;BME280;22232;50.914;13.858;2023-04-25T11:16:17;97085.91;;;11.79;94.28
36190;BME280;22232;50.914;13.858;2023-04-25T11:18:57;97077.28;;;11.66;98.68
36190;BME280;22232;50.914;13.858;2023-04-25T11:21:25;97087.81;;;11.51;100.00
36190;BME280;22232;50.914;13.858;2023-04-25T11:23:56;97089.28;;;11.37;100.00
36190;BME280;22232;50.914;13.858;2023-04-25T11:26:24;97094.41;;;11.11;100.00
36190;BME280;22232;50.914;13.858;2023-04-25T11:28:57;97106.66;;;10.63;100.00
36190;BME280;22232;50.914;13.858;2023-04-25T11:31:25;97107.13;;;10.38;100.00
36190;BME280;22232;50.914;13.858;2023-04-25T11:33:54;97113.53;;;10.03;100.00
36190;BME280;22232;50.914;13.858;2023-04-25T11:36:24;97126.88;;;9.86;100.00
36190;BME280;22232;50.914;13.858;2023-04-25T11:38:53;97119.19;;;9.56;100.00
36190;BME280;22232;50.914;13.858;2023-04-25T11:41:21;97127.25;;;9.45;100.00
36190;BME280;22232;50.914;13.858;2023-04-25T11:43:49;97128.69;;;9.35;100.00
36190;BME280;22232;50.914;13.858;2023-04-25T11:46:19;97124.19;;;9.53;100.00
36190;BME280;22232;50.914;13.858;2023-04-25T11:48:47;97127.34;;;9.50;100.00
36190;BME280;22232;50.914;13.858;2023-04-25T11:51:16;97134.66;;;9.42;100.00
36190;BME280;22232;50.914;13.858;2023-04-25T11:53:46;97137.63;;;9.46;100.00
36190;BME280;22232;50.914;13.858;2023-04-25T11:56:14;97142.41;;;9.44;100.00
36190;BME280;22232;50.914;13.858;2023-04-25T11:58:58;97145.97;;;9.50;100.00
36190;BME280;22232;50.914;13.858;2023-04-25T12:01:34;97144.69;;;9.24;100.00
36190;BME280;22232;50.914;13.858;2023-04-25T12:04:13;97151.59;;;9.36;100.00
36190;BME280;22232;50.914;13.858;2023-04-25T12:06:43;97143.69;;;9.41;100.00
36190;BME280;22232;50.914;13.858;2023-04-25T12:09:12;97151.84;;;9.52;100.00
36190;BME280;22232;50.914;13.858;2023-04-25T12:11:41;97149.81;;;9.42;100.00
36190;BME280;22232;50.914;13.858;2023-04-25T12:14:10;97150.47;;;9.49;100.00
36190;BME280;22232;50.914;13.858;2023-04-25T12:16:46;97156.31;;;9.63;100.00
36190;BME280;22232;50.914;13.858;2023-04-25T12:19:14;97154.81;;;9.84;100.00
36190;BME280;22232;50.914;13.858;2023-04-25T12:21:43;97143.63;;;10.04;100.00
36190;BME280;22232;50.914;13.858;2023-04-25T12:24:26;97153.31;;;10.10;100.00
36190;BME280;22232;50.914;13.858;2023-04-25T12:27:03;97160.34;;;10.16;100.00
36190;BME280;22232;50.914;13.858;2023-04-25T12:29:33;97157.19;;;10.19;100.00
36190;BME280;22232;50.914;13.858;2023-04-25T12:32:15;97161.75;;;10.36;100.00
36190;BME280;22232;50.914;13.858;2023-04-25T12:34:43;97158.63;;;10.44;100.00
36190;BME280;22232;50.914;13.858;2023-04-25T12:37:10;97163.66;;;10.40;100.00
36190;BME280;22232;50.914;13.858;2023-04-25T12:39:38;97159.00;;;10.14;100.00
36190;BME280;22232;50.914;13.858;2023-04-25T12:42:06;97162.69;;;10.13;100.00
36190;BME280;22232;50.914;13.858;2023-04-25T12:44:40;97159.94;;;10.24;100.00
36190;BME280;22232;50.914;13.858;2023-04-25T12:47:08;97167.88;;;10.53;100.00
36190;BME280;22232;50.914;13.858;2023-04-25T12:49:37;97161.75;;;10.74;100.00
36190;BME280;22232;50.914;13.858;2023-04-25T12:52:04;97154.63;;;11.29;100.00
36190;BME280;22232;50.914;13.858;2023-04-25T12:54:32;97150.69;;;11.91;100.00
36190;BME280;22232;50.914;13.858;2023-04-25T12:56:59;97161.75;;;12.05;93.06
36190;BME280;22232;50.914;13.858;2023-04-25T12:59:28;97150.91;;;11.57;87.83
36190;BME280;22232;50.914;13.858;2023-04-25T13:01:56;97163.66;;;11.23;92.02
36190;BME280;22232;50.914;13.858;2023-04-25T13:04:23;97166.94;;;10.86;93.50
36190;BME280;22232;50.914;13.858;2023-04-25T13:06:51;97161.09;;;10.67;96.65
36190;BME280;22232;50.914;13.858;2023-04-25T13:09:19;97176.34;;;10.50;93.03
36190;BME280;22232;50.914;13.858;2023-04-25T13:11:47;97174.44;;;10.67;96.27
36190;BME280;22232;50.914;13.858;2023-04-25T13:14:15;97171.91;;;10.99;98.88
36190;BME280;22232;50.914;13.858;2023-04-25T13:16:42;97180.53;;;10.85;91.09
36190;BME280;22232;50.914;13.858;2023-04-25T13:19:10;97180.13;;;10.93;94.46